createdAt,value
2023-03-05T00:00:23.391Z,98238.06
2023-03-05T00:03:26.612Z,98243.13
2023-03-05T00:06:32.973Z,98237.19
2023-03-05T00:09:36.165Z,98240.38
2023-03-05T00:12:39.342Z,98235.50
2023-03-05T00:15:43.108Z,98238.81
2023-03-05T00:18:46.360Z,98245.63
2023-03-05T00:21:50.881Z,98166.03
2023-03-05T00:24:54.211Z,98218.50
2023-03-05T00:27:57.390Z,98233.72
2023-03-05T00:31:01.869Z,98236.25
2023-03-05T00:34:08.032Z,98237.97
2023-03-05T00:37:12.599Z,98227.75
2023-03-05T00:40:16.096Z,98224.38
2023-03-05T00:43:19.348Z,98221.75
2023-03-05T00:46:23.082Z,98226.06
2023-03-05T00:49:26.401Z,98213.31
2023-03-05T00:52:30.946Z,98223.56
2023-03-05T00:55:36.048Z,98226.09
2023-03-05T00:58:39.802Z,98225.25
2023-03-05T01:01:43.078Z,98218.44
2023-03-05T01:04:49.564Z,98220.09
2023-03-05T01:07:55.720Z,98226.88
2023-03-05T01:10:59.361Z,98220.06
2023-03-05T01:14:04.577Z,98215.88
2023-03-05T01:17:07.720Z,98212.31
2023-03-05T01:20:14.410Z,98209.84
2023-03-05T01:23:19.208Z,98199.72
2023-03-05T01:26:22.413Z,98200.50
2023-03-05T01:29:25.664Z,98201.41
2023-03-05T01:32:28.824Z,98180.16
2023-03-05T01:35:33.888Z,98201.44
2023-03-05T01:38:38.375Z,98192.03
2023-03-05T01:41:41.502Z,98192.03
2023-03-05T01:45:01.156Z,98189.41
2023-03-05T01:48:04.748Z,98183.59
2023-03-05T01:51:08.577Z,98193.78
2023-03-05T01:54:16.373Z,98190.34
2023-03-05T01:57:24.021Z,98190.34
2023-03-05T02:00:30.382Z,98182.69
2023-03-05T02:03:35.224Z,98186.91
2023-03-05T02:06:39.632Z,98185.25
2023-03-05T02:09:44.211Z,98176.75
2023-03-05T02:12:48.713Z,98180.16
2023-03-05T02:15:53.730Z,98178.44
2023-03-05T02:18:58.102Z,98169.91
2023-03-05T02:22:02.770Z,98164.06
2023-03-05T02:25:15.323Z,98169.97
2023-03-05T02:28:24.015Z,98163.16
2023-03-05T02:31:27.642Z,98159.00
2023-03-05T02:34:30.858Z,98159.00
2023-03-05T02:37:35.508Z,98154.66
2023-03-05T02:40:38.956Z,98154.81
2023-03-05T02:43:42.317Z,98148.78
2023-03-05T02:46:45.493Z,98151.41
2023-03-05T02:49:48.767Z,98145.41
2023-03-05T02:52:53.402Z,98142.81
2023-03-05T02:55:57.627Z,98106.47
2023-03-05T02:59:00.923Z,98118.19
2023-03-05T03:02:04.118Z,98119.03
2023-03-05T03:05:08.290Z,98121.59
2023-03-05T03:08:12.773Z,98124.16
2023-03-05T03:11:15.927Z,98127.63
2023-03-05T03:14:19.209Z,98126.81
2023-03-05T03:17:22.344Z,98125.97
2023-03-05T03:20:26.617Z,98103.81
2023-03-05T03:23:31.690Z,98120.84
2023-03-05T03:26:34.803Z,98120.00
2023-03-05T03:29:38.801Z,98098.72
2023-03-05T03:32:41.997Z,98108.06
2023-03-05T03:35:46.307Z,98102.13
2023-03-05T03:38:51.129Z,98101.22
2023-03-05T03:41:54.882Z,98101.28
2023-03-05T03:44:58.156Z,98095.25
2023-03-05T03:48:01.350Z,98104.69
2023-03-05T03:51:08.816Z,98097.81
2023-03-05T03:54:14.333Z,98069.13
2023-03-05T03:57:17.520Z,98099.44
2023-03-05T04:00:21.268Z,98084.22
2023-03-05T04:03:24.552Z,98090.25
2023-03-05T04:06:28.092Z,98086.78
2023-03-05T04:09:32.713Z,98082.56
2023-03-05T04:12:35.889Z,98074.88
2023-03-05T04:15:39.121Z,98076.63
2023-03-05T04:18:42.938Z,98063.09
2023-03-05T04:21:46.183Z,98076.59
2023-03-05T04:24:50.639Z,98067.31
2023-03-05T04:27:53.876Z,98066.47
2023-03-05T04:34:24.972Z,98063.00
2023-03-05T04:37:28.323Z,98063.00
2023-03-05T04:40:31.568Z,98053.47
2023-03-05T04:43:34.691Z,98061.19
2023-03-05T04:46:37.888Z,98058.69
2023-03-05T04:49:42.612Z,98053.59
2023-03-05T04:52:47.000Z,98056.06
2023-03-05T04:55:54.072Z,98054.47
2023-03-05T04:58:57.253Z,98050.31
2023-03-05T05:02:00.751Z,98058.88
2023-03-05T05:05:05.621Z,98048.53
2023-03-05T05:08:08.841Z,98048.63
2023-03-05T05:11:15.144Z,98048.63
2023-03-05T05:14:18.895Z,98045.16
2023-03-05T05:17:22.374Z,98037.59
2023-03-05T05:20:29.871Z,97966.53
2023-03-05T05:23:33.324Z,98040.97
2023-03-05T05:26:36.442Z,98046.97
2023-03-05T05:29:39.650Z,98045.25
2023-03-05T05:32:42.920Z,98051.16
2023-03-05T05:35:47.594Z,98052.91
2023-03-05T05:38:51.549Z,98044.34
2023-03-05T05:41:54.872Z,98050.44
2023-03-05T05:44:58.274Z,98041.88
2023-03-05T05:48:01.424Z,98053.66
2023-03-05T05:51:08.732Z,98049.53
2023-03-05T05:54:14.056Z,98052.84
2023-03-05T05:57:17.222Z,98053.75
2023-03-05T06:00:20.958Z,98050.31
2023-03-05T06:03:24.227Z,98048.63
2023-03-05T06:06:30.128Z,98046.16
2023-03-05T06:09:33.617Z,98052.06
2023-03-05T06:12:36.991Z,98050.31
2023-03-05T06:15:40.218Z,98048.63
2023-03-05T06:18:43.653Z,98052.91
2023-03-05T06:21:48.167Z,98046.91
2023-03-05T06:24:51.308Z,98045.25
2023-03-05T06:27:54.657Z,98047.72
2023-03-05T06:31:02.146Z,98053.66
2023-03-05T06:34:05.785Z,98045.16
2023-03-05T06:37:10.290Z,98047.69
2023-03-05T06:40:14.695Z,98050.25
2023-03-05T06:43:17.882Z,98057.00
2023-03-05T06:46:22.994Z,98045.88
2023-03-05T06:49:26.190Z,98042.41
2023-03-05T06:52:30.737Z,98035.66
2023-03-05T06:55:39.728Z,98046.59
2023-03-05T06:58:42.985Z,98045.81
2023-03-05T07:01:46.413Z,98053.44
2023-03-05T07:04:49.611Z,98051.78
2023-03-05T07:07:54.300Z,98051.81
2023-03-05T07:10:57.666Z,98049.91
2023-03-05T07:14:01.409Z,98039.81
2023-03-05T07:17:04.674Z,98039.88
2023-03-05T07:20:09.611Z,98038.19
2023-03-05T07:23:14.475Z,98042.38
2023-03-05T07:26:17.861Z,98028.69
2023-03-05T07:29:21.031Z,98037.19
2023-03-05T07:32:24.239Z,98031.28
2023-03-05T07:35:27.914Z,98006.59
2023-03-05T07:38:32.614Z,98029.47
2023-03-05T07:41:35.858Z,98025.84
2023-03-05T07:44:39.856Z,98029.22
2023-03-05T07:47:42.979Z,98024.78
2023-03-05T07:50:46.121Z,98028.34
2023-03-05T07:53:52.200Z,98026.56
2023-03-05T07:56:55.697Z,98029.06
2023-03-05T07:59:58.949Z,98024.78
2023-03-05T08:03:02.175Z,98022.09
2023-03-05T08:06:06.572Z,98016.09
2023-03-05T08:09:11.099Z,97951.13
2023-03-05T08:12:14.266Z,98020.28
2023-03-05T08:15:17.998Z,98018.28
2023-03-05T08:18:21.176Z,98017.50
2023-03-05T08:21:29.336Z,98015.16
2023-03-05T08:24:33.992Z,98015.78
2023-03-05T08:27:39.927Z,98014.72
2023-03-05T08:30:43.086Z,98002.09
2023-03-05T08:33:46.435Z,98000.19
2023-03-05T08:36:50.139Z,98007.78
2023-03-05T08:39:56.184Z,98005.09
2023-03-05T08:43:00.158Z,98002.56
2023-03-05T08:46:04.665Z,97990.72
2023-03-05T08:49:08.324Z,98006.97
2023-03-05T08:52:11.944Z,98000.00
2023-03-05T08:55:16.935Z,98003.72
2023-03-05T08:58:20.090Z,97993.41
2023-03-05T09:01:23.909Z,97994.38
2023-03-05T09:04:27.237Z,97993.38
2023-03-05T09:07:30.428Z,97990.72
2023-03-05T09:10:35.435Z,97992.13
2023-03-05T09:13:38.657Z,97991.56
2023-03-05T09:16:41.976Z,97990.81
2023-03-05T09:19:45.189Z,97979.72
2023-03-05T09:22:48.374Z,97978.69
2023-03-05T09:25:53.013Z,97971.59
2023-03-05T09:28:56.387Z,97973.50
2023-03-05T09:31:59.621Z,97972.63
2023-03-05T09:35:02.879Z,97972.81
2023-03-05T09:38:06.117Z,97971.97
2023-03-05T09:41:18.681Z,97969.53
2023-03-05T09:44:29.320Z,97973.44
2023-03-05T09:47:46.325Z,97972.16
2023-03-05T09:50:53.390Z,97964.69
2023-03-05T09:54:03.191Z,97968.78
2023-03-05T09:57:17.349Z,97965.38
2023-03-05T10:00:30.913Z,97969.81
2023-03-05T10:03:48.461Z,97970.81
2023-03-05T10:06:56.195Z,97971.66
2023-03-05T10:10:01.189Z,97970.94
2023-03-05T10:13:13.045Z,97965.59
2023-03-05T10:16:39.948Z,97965.59
2023-03-05T10:20:06.144Z,97959.59
2023-03-05T10:23:26.789Z,97959.66
2023-03-05T10:26:58.518Z,97949.56
2023-03-05T10:34:46.112Z,97943.38
2023-03-05T10:38:08.948Z,97940.00
2023-03-05T10:41:22.254Z,97937.22
2023-03-05T10:44:34.482Z,97936.63
2023-03-05T10:47:45.736Z,97931.31
2023-03-05T10:50:55.041Z,97936.09
2023-03-05T10:54:00.109Z,97929.59
2023-03-05T10:57:14.882Z,97918.13
2023-03-05T11:00:20.850Z,97920.84
2023-03-05T11:03:24.340Z,97920.91
2023-03-05T11:06:34.965Z,97916.59
2023-03-05T11:09:38.255Z,97906.03
2023-03-05T11:12:41.462Z,97900.97
2023-03-05T11:15:44.720Z,97897.38
2023-03-05T11:18:48.045Z,97896.50
2023-03-05T11:22:14.539Z,97888.59
2023-03-05T11:25:21.357Z,97886.91
2023-03-05T11:28:33.038Z,97883.03
2023-03-05T11:31:36.997Z,97883.09
2023-03-05T11:34:43.268Z,97878.44
2023-03-05T11:38:01.328Z,97866.31
2023-03-05T11:41:04.612Z,97872.88
2023-03-05T11:44:13.820Z,97875.31
2023-03-05T11:47:27.639Z,97869.47
2023-03-05T11:50:32.572Z,97840.16
2023-03-05T11:53:38.046Z,97869.38
2023-03-05T11:56:45.130Z,97852.72
2023-03-05T11:59:49.043Z,97859.50
2023-03-05T12:02:55.701Z,97860.25
2023-03-05T12:06:03.673Z,97852.41
2023-03-05T12:09:13.293Z,97843.06
2023-03-05T12:12:30.827Z,97840.97
2023-03-05T12:15:46.760Z,97840.91
2023-03-05T12:18:58.686Z,97836.59
2023-03-05T12:22:03.513Z,97826.97
2023-03-05T12:25:28.338Z,97820.34
2023-03-05T12:28:54.836Z,97815.84
2023-03-05T12:31:58.863Z,97808.72
2023-03-05T12:35:04.309Z,97807.97
2023-03-05T12:38:32.058Z,97800.34
2023-03-05T12:41:37.677Z,97798.72
2023-03-05T12:44:40.848Z,97794.19
2023-03-05T12:47:45.120Z,97792.63
2023-03-05T12:50:49.644Z,97783.31
2023-03-05T12:53:52.972Z,97780.50
2023-03-05T12:56:58.913Z,97760.75
2023-03-05T13:00:08.062Z,97784.03
2023-03-05T13:03:17.186Z,97773.03
2023-03-05T13:06:29.774Z,97777.22
2023-03-05T13:09:36.345Z,97777.53
2023-03-05T13:12:41.071Z,97782.53
2023-03-05T13:15:46.905Z,97771.41
2023-03-05T13:18:51.542Z,97766.00
2023-03-05T13:22:11.713Z,97773.31
2023-03-05T13:25:20.377Z,97758.75
2023-03-05T13:28:25.184Z,97762.81
2023-03-05T13:31:28.836Z,97763.22
2023-03-05T13:34:46.207Z,97758.78
2023-03-05T13:37:51.065Z,97760.84
2023-03-05T13:41:19.384Z,97753.19
2023-03-05T13:44:29.472Z,97746.19
2023-03-05T13:47:34.599Z,97750.91
2023-03-05T13:50:40.779Z,97749.41
2023-03-05T13:53:44.728Z,97674.81
2023-03-05T13:56:53.655Z,97728.69
2023-03-05T13:59:58.136Z,97733.94
2023-03-05T14:03:09.772Z,97729.34
2023-03-05T14:06:19.529Z,97728.22
2023-03-05T14:09:26.200Z,97731.38
2023-03-05T14:12:34.465Z,97712.81
2023-03-05T14:15:39.200Z,97716.75
2023-03-05T14:18:55.123Z,97714.59
2023-03-05T14:21:58.443Z,97708.50
2023-03-05T14:25:02.019Z,97713.13
2023-03-05T14:28:07.598Z,97708.53
2023-03-05T14:31:17.720Z,97698.44
2023-03-05T14:34:25.223Z,97698.59
2023-03-05T14:37:36.518Z,97669.00
2023-03-05T14:40:39.682Z,97694.13
2023-03-05T14:43:42.920Z,97683.03
2023-03-05T14:46:50.923Z,97688.84
2023-03-05T14:49:54.420Z,97683.78
2023-03-05T14:53:00.234Z,97682.13
2023-03-05T14:56:03.709Z,97674.69
2023-03-05T14:59:07.302Z,97684.00
2023-03-05T15:02:16.439Z,97677.34
2023-03-05T15:05:20.874Z,97674.81
2023-03-05T15:08:26.872Z,97664.50
2023-03-05T15:16:20.253Z,97650.94
2023-03-05T15:19:28.006Z,97638.19
2023-03-05T15:22:31.276Z,97639.09
2023-03-05T15:25:35.325Z,97637.31
2023-03-05T15:28:40.017Z,97637.38
2023-03-05T15:31:43.131Z,97635.75
2023-03-05T15:34:47.801Z,97626.34
2023-03-05T15:37:51.214Z,97625.66
2023-03-05T15:40:54.710Z,97622.31
2023-03-05T15:43:57.828Z,97609.66
2023-03-05T15:47:00.925Z,97607.94
2023-03-05T15:50:06.662Z,97604.41
2023-03-05T15:53:10.023Z,97612.63
2023-03-05T15:56:17.414Z,97600.97
2023-03-05T15:59:20.865Z,97605.25
2023-03-05T16:02:25.066Z,97595.81
2023-03-05T16:05:29.810Z,97600.13
2023-03-05T16:08:36.113Z,97600.19
2023-03-05T16:11:47.737Z,97596.06
2023-03-05T16:14:52.125Z,97589.22
2023-03-05T16:17:56.930Z,97586.00
2023-03-05T16:21:02.188Z,97584.94
2023-03-05T16:24:05.726Z,97581.59
2023-03-05T16:27:12.376Z,97579.28
2023-03-05T16:34:24.645Z,97575.88
2023-03-05T16:37:27.931Z,97568.31
2023-03-05T16:40:56.633Z,97566.59
2023-03-05T16:43:57.889Z,97537.13
2023-03-05T16:47:01.144Z,97542.84
2023-03-05T16:50:07.507Z,97566.66
2023-03-05T16:53:10.813Z,97572.69
2023-03-05T16:56:14.130Z,97577.88
2023-03-05T16:59:17.685Z,97567.72
2023-03-05T17:02:20.978Z,97565.25
2023-03-05T17:05:29.783Z,97559.25
2023-03-05T17:08:33.172Z,97555.97
2023-03-05T17:11:36.428Z,97554.28
2023-03-05T17:14:39.921Z,97565.56
2023-03-05T17:17:43.068Z,97559.25
2023-03-05T17:20:47.600Z,97561.25
2023-03-05T17:23:53.487Z,97553.72
2023-03-05T17:26:56.711Z,97550.03
2023-03-05T17:29:59.922Z,97556.22
2023-03-05T17:33:04.109Z,97547.59
2023-03-05T17:36:13.914Z,97501.50
2023-03-05T17:39:18.832Z,97548.81
2023-03-05T17:42:22.509Z,97522.69
2023-03-05T17:45:27.787Z,97547.13
2023-03-05T17:48:30.983Z,97549.50
2023-03-05T18:03:09.775Z,97550.09
2023-03-05T18:06:33.290Z,97556.47
2023-03-05T18:09:37.039Z,97526.44
2023-03-05T18:12:40.305Z,97540.25
2023-03-05T18:15:47.494Z,97547.81
2023-03-05T18:18:52.151Z,97542.34
2023-03-05T18:21:55.458Z,97540.56
2023-03-05T18:25:03.669Z,97558.19
2023-03-05T18:28:09.063Z,97544.75
2023-03-05T18:31:12.291Z,97551.81
2023-03-05T18:34:17.557Z,97551.44
2023-03-05T18:37:20.794Z,97543.94
2023-03-05T18:40:27.697Z,97535.81
2023-03-05T18:43:31.277Z,97527.75
2023-03-05T18:46:34.419Z,97530.38
2023-03-05T18:49:38.916Z,97530.53
2023-03-05T18:52:42.424Z,97529.00
2023-03-05T18:55:45.792Z,97521.19
2023-03-05T18:58:49.196Z,97545.00
2023-03-05T19:01:52.351Z,97535.44
2023-03-05T19:04:59.290Z,97530.19
2023-03-05T19:08:04.700Z,97533.09
2023-03-05T19:11:17.410Z,97526.22
2023-03-05T19:14:20.592Z,97528.84
2023-03-05T19:17:23.739Z,97531.47
2023-03-05T19:20:28.392Z,97518.25
2023-03-05T19:23:31.614Z,97521.22
2023-03-05T19:26:35.199Z,97522.91
2023-03-05T19:29:40.182Z,97517.94
2023-03-05T19:32:47.067Z,97521.19
2023-03-05T19:35:51.877Z,97508.13
2023-03-05T19:38:55.102Z,97515.06
2023-03-05T19:41:58.856Z,97517.75
2023-03-05T19:45:02.301Z,97503.63
2023-03-05T19:48:06.057Z,97506.03
2023-03-05T19:51:13.192Z,97511.22
2023-03-05T19:54:18.234Z,97511.06
2023-03-05T19:57:21.503Z,97512.72
2023-03-05T20:00:26.246Z,97515.41
2023-03-05T20:03:29.483Z,97498.69
2023-03-05T20:06:34.696Z,97499.53
2023-03-05T20:09:38.104Z,97500.34
2023-03-05T20:12:41.382Z,97491.31
2023-03-05T20:15:44.539Z,97500.19
2023-03-05T20:18:52.516Z,97482.09
2023-03-05T20:21:56.994Z,97488.28
2023-03-05T20:25:00.273Z,97492.09
2023-03-05T20:28:03.617Z,97493.50
2023-03-05T20:31:06.767Z,97477.78
2023-03-05T20:34:12.346Z,97489.44
2023-03-05T20:37:16.882Z,97491.22
2023-03-05T20:40:20.317Z,97482.44
2023-03-05T20:43:24.456Z,97456.03
2023-03-05T20:46:29.819Z,97480.94
2023-03-05T20:49:32.972Z,97480.91
2023-03-05T20:52:37.651Z,97437.75
2023-03-05T20:55:40.936Z,97478.53
2023-03-05T20:58:44.342Z,97458.34
2023-03-05T21:01:47.448Z,97470.34
2023-03-05T21:04:50.702Z,97464.38
2023-03-05T21:07:55.810Z,97463.25
2023-03-05T21:10:59.272Z,97465.97
2023-03-05T21:14:02.670Z,97461.75
2023-03-05T21:17:06.149Z,97457.47
2023-03-05T21:20:14.181Z,97456.59
2023-03-05T21:23:18.757Z,97450.88
2023-03-05T21:26:22.462Z,97449.00
2023-03-05T21:29:25.772Z,97448.94
2023-03-05T21:32:28.904Z,97450.69
2023-03-05T21:35:33.519Z,97437.69
2023-03-05T21:38:38.052Z,97441.41
2023-03-05T21:41:41.155Z,97434.63
2023-03-05T21:44:44.375Z,97429.00
2023-03-05T21:47:49.180Z,97418.00
2023-03-05T21:50:52.659Z,97428.38
2023-03-05T21:53:57.139Z,97421.22
2023-03-05T21:57:00.444Z,97418.50
2023-03-05T22:00:05.826Z,97423.69
2023-03-05T22:03:15.253Z,97415.03
2023-03-05T22:06:19.620Z,97412.59
2023-03-05T22:09:24.125Z,97415.38
2023-03-05T22:12:43.012Z,97398.66
2023-03-05T22:15:46.965Z,97405.88
2023-03-05T22:18:49.954Z,97396.06
2023-03-05T22:21:53.058Z,97399.13
2023-03-05T22:24:57.665Z,97390.06
2023-03-05T22:28:00.873Z,97391.47
2023-03-05T22:34:24.466Z,97388.28
2023-03-05T22:37:29.377Z,97383.91
2023-03-05T22:40:32.738Z,97379.53
2023-03-05T22:43:35.903Z,97380.66
2023-03-05T22:46:39.288Z,97368.38
2023-03-05T22:49:46.459Z,97368.06
2023-03-05T22:52:50.026Z,97362.97
2023-03-05T22:55:53.994Z,97365.09
2023-03-05T22:58:57.908Z,97361.28
2023-03-05T23:02:01.056Z,97358.44
2023-03-05T23:05:07.208Z,97365.31
2023-03-05T23:08:10.397Z,97348.84
2023-03-05T23:11:14.426Z,97344.09
2023-03-05T23:14:17.626Z,97349.91
2023-03-05T23:17:20.905Z,97343.47
2023-03-05T23:20:27.092Z,97334.84
2023-03-05T23:23:30.228Z,97334.78
2023-03-05T23:26:33.428Z,97331.56
2023-03-05T23:29:53.143Z,97332.19
2023-03-05T23:32:58.495Z,97322.22
2023-03-05T23:36:03.142Z,97327.13
2023-03-05T23:39:06.284Z,97320.53
2023-03-05T23:42:10.382Z,97325.84
2023-03-05T23:45:15.416Z,97320.75
2023-03-05T23:48:18.819Z,97315.38
2023-03-05T23:51:23.326Z,97324.13
2023-03-05T23:54:26.522Z,97319.03
2023-03-05T23:57:29.633Z,97315.63
